createdAt,value
2023-03-19T00:01:05.741Z,10.15
2023-03-19T00:03:34.509Z,10.32
2023-03-19T00:06:03.843Z,10.32
2023-03-19T00:08:32.251Z,9.27
2023-03-19T00:11:01.254Z,10.07
2023-03-19T00:13:29.543Z,11.10
2023-03-19T00:15:59.313Z,10.65
2023-03-19T00:18:27.995Z,11.45
2023-03-19T00:20:56.929Z,10.32
2023-03-19T00:23:25.542Z,10.23
2023-03-19T00:25:55.723Z,10.23
2023-03-19T00:28:24.351Z,10.60
2023-03-19T00:30:55.987Z,10.55
2023-03-19T00:33:26.790Z,10.85
2023-03-19T00:35:55.519Z,11.38
2023-03-19T00:38:24.294Z,10.80
2023-03-19T00:40:53.244Z,10.45
2023-03-19T00:43:22.023Z,9.65
2023-03-19T00:45:51.989Z,11.23
2023-03-19T00:48:23.666Z,9.48
2023-03-19T00:50:53.737Z,9.43
2023-03-19T00:53:22.609Z,9.93
2023-03-19T00:55:51.209Z,10.40
2023-03-19T00:58:19.507Z,12.00
2023-03-19T01:00:48.623Z,11.27
2023-03-19T01:03:17.023Z,11.55
2023-03-19T01:05:45.367Z,11.60
2023-03-19T01:08:15.395Z,12.30
2023-03-19T01:10:44.252Z,11.95
2023-03-19T01:13:13.041Z,12.45
2023-03-19T01:15:45.385Z,12.55
2023-03-19T01:18:14.092Z,11.90
2023-03-19T01:20:43.338Z,10.27
2023-03-19T01:23:12.237Z,11.35
2023-03-19T01:25:42.319Z,11.10
2023-03-19T01:28:11.074Z,12.85
2023-03-19T01:30:41.073Z,12.27
2023-03-19T01:33:09.601Z,11.75
2023-03-19T01:35:38.120Z,10.68
2023-03-19T01:38:08.065Z,11.73
2023-03-19T01:40:36.691Z,9.82
2023-03-19T01:43:19.044Z,11.60
2023-03-19T01:45:50.741Z,12.27
2023-03-19T01:48:29.058Z,14.90
2023-03-19T01:50:59.088Z,14.77
2023-03-19T01:53:36.140Z,16.02
2023-03-19T01:56:10.004Z,17.10
2023-03-19T01:58:41.294Z,16.35
2023-03-19T02:01:09.655Z,16.95
2023-03-19T02:03:39.744Z,17.58
2023-03-19T02:06:09.012Z,18.65
2023-03-19T02:08:40.528Z,18.10
2023-03-19T02:11:09.931Z,19.50
2023-03-19T02:13:39.803Z,19.52
2023-03-19T02:16:12.570Z,19.10
2023-03-19T02:18:41.688Z,20.58
2023-03-19T02:21:12.378Z,20.30
2023-03-19T02:23:48.220Z,21.27
2023-03-19T02:26:19.562Z,21.27
2023-03-19T02:28:49.996Z,21.58
2023-03-19T02:31:19.254Z,20.80
2023-03-19T02:33:59.111Z,21.70
2023-03-19T02:36:30.870Z,22.02
2023-03-19T02:39:01.610Z,22.20
2023-03-19T02:41:33.663Z,22.50
2023-03-19T02:44:04.736Z,21.70
2023-03-19T02:46:33.524Z,23.90
2023-03-19T02:49:01.918Z,23.02
2023-03-19T02:51:30.256Z,24.45
2023-03-19T02:54:00.957Z,24.20
2023-03-19T02:56:31.363Z,23.25
2023-03-19T02:58:59.794Z,23.05
2023-03-19T03:01:28.470Z,24.42
2023-03-19T03:03:57.281Z,23.63
2023-03-19T03:06:25.753Z,24.23
2023-03-19T03:08:54.501Z,25.10
2023-03-19T03:11:23.161Z,25.00
2023-03-19T03:13:52.855Z,26.35
2023-03-19T03:16:21.754Z,25.60
2023-03-19T03:18:50.310Z,25.42
2023-03-19T03:21:20.129Z,26.10
2023-03-19T03:23:48.668Z,25.42
2023-03-19T03:26:17.328Z,26.65
2023-03-19T03:28:45.688Z,26.58
2023-03-19T03:31:15.705Z,26.27
2023-03-19T03:33:44.206Z,26.40
2023-03-19T03:36:13.412Z,26.50
2023-03-19T03:38:43.824Z,25.48
2023-03-19T03:41:12.543Z,26.15
2023-03-19T03:43:41.200Z,24.67
2023-03-19T03:46:09.776Z,25.25
2023-03-19T03:48:39.655Z,26.35
2023-03-19T03:51:07.930Z,20.08
2023-03-19T03:53:36.815Z,20.00
2023-03-19T03:56:05.338Z,19.90
2023-03-19T03:58:33.808Z,20.42
2023-03-19T04:01:05.011Z,21.90
2023-03-19T04:03:33.431Z,19.98
2023-03-19T04:06:03.250Z,20.13
2023-03-19T04:08:31.562Z,21.65
2023-03-19T04:11:00.006Z,21.98
2023-03-19T04:13:29.476Z,23.58
2023-03-19T04:15:57.996Z,23.65
2023-03-19T04:18:26.446Z,23.17
2023-03-19T04:20:55.234Z,23.73
2023-03-19T04:23:25.170Z,22.40
2023-03-19T04:25:53.728Z,22.60
2023-03-19T04:28:21.991Z,22.33
2023-03-19T04:30:50.404Z,22.45
2023-03-19T04:33:19.283Z,22.20
2023-03-19T04:35:47.665Z,21.05
2023-03-19T04:38:16.072Z,21.55
2023-03-19T04:40:46.623Z,21.90
2023-03-19T04:43:14.997Z,22.38
2023-03-19T04:45:43.574Z,23.35
2023-03-19T04:48:15.189Z,23.10
2023-03-19T04:50:43.717Z,17.63
2023-03-19T04:53:12.100Z,16.73
2023-03-19T04:55:41.134Z,18.35
2023-03-19T04:58:11.417Z,21.40
2023-03-19T05:00:39.991Z,19.08
2023-03-19T05:03:08.333Z,22.70
2023-03-19T05:05:36.640Z,17.83
2023-03-19T05:08:05.809Z,20.77
2023-03-19T05:10:35.376Z,21.63
2023-03-19T05:13:04.904Z,20.23
2023-03-19T05:15:34.863Z,20.55
2023-03-19T05:18:03.198Z,19.35
2023-03-19T05:20:31.630Z,18.27
2023-03-19T05:23:01.135Z,17.17
2023-03-19T05:25:30.218Z,17.52
2023-03-19T05:28:01.477Z,13.23
2023-03-19T05:30:29.883Z,13.10
2023-03-19T05:32:59.996Z,11.88
2023-03-19T05:35:30.867Z,12.50
2023-03-19T05:37:59.935Z,12.38
2023-03-19T05:40:29.079Z,12.82
2023-03-19T05:42:57.410Z,12.23
2023-03-19T05:45:26.125Z,12.20
2023-03-19T05:47:54.902Z,11.32
2023-03-19T05:50:24.788Z,11.80
2023-03-19T05:52:53.164Z,10.85
2023-03-19T05:55:21.580Z,14.13
2023-03-19T05:57:49.960Z,12.02
2023-03-19T06:00:22.302Z,12.50
2023-03-19T06:02:51.624Z,12.77
2023-03-19T06:05:20.098Z,11.60
2023-03-19T06:07:49.909Z,12.18
2023-03-19T06:10:18.753Z,12.35
2023-03-19T06:12:47.783Z,12.32
2023-03-19T06:15:17.064Z,12.57
2023-03-19T06:17:45.845Z,13.25
2023-03-19T06:20:14.582Z,12.43
2023-03-19T06:22:43.690Z,13.75
2023-03-19T06:25:13.330Z,12.45
2023-03-19T06:27:41.704Z,14.60
2023-03-19T06:30:11.146Z,14.93
2023-03-19T06:32:39.549Z,14.98
2023-03-19T06:35:08.753Z,13.68
2023-03-19T06:37:37.659Z,15.00
2023-03-19T06:40:07.431Z,19.02
2023-03-19T06:42:37.399Z,15.07
2023-03-19T06:45:07.732Z,16.58
2023-03-19T06:47:36.209Z,16.23
2023-03-19T06:50:05.761Z,16.73
2023-03-19T06:52:34.127Z,16.58
2023-03-19T06:55:02.431Z,17.83
2023-03-19T06:57:30.759Z,18.95
2023-03-19T07:00:00.569Z,18.70
2023-03-19T07:02:28.876Z,17.73
2023-03-19T07:04:57.976Z,18.42
2023-03-19T07:07:26.356Z,18.35
2023-03-19T07:09:56.726Z,19.02
2023-03-19T07:12:27.834Z,19.33
2023-03-19T07:14:57.292Z,18.45
2023-03-19T07:17:28.026Z,17.58
2023-03-19T07:19:56.457Z,18.20
2023-03-19T07:22:24.794Z,18.73
2023-03-19T07:24:53.166Z,18.45
2023-03-19T07:27:22.071Z,19.35
2023-03-19T07:29:50.466Z,19.67
2023-03-19T07:32:18.943Z,19.13
2023-03-19T07:34:49.244Z,19.85
2023-03-19T07:37:18.583Z,19.13
2023-03-19T07:39:48.053Z,19.48
2023-03-19T07:42:16.343Z,19.17
2023-03-19T07:44:44.798Z,22.42
2023-03-19T07:47:27.925Z,22.50
2023-03-19T07:49:58.239Z,22.20
2023-03-19T07:52:27.094Z,24.67
2023-03-19T07:54:55.710Z,22.45
2023-03-19T07:57:25.474Z,23.05
2023-03-19T07:59:54.036Z,25.17
2023-03-19T08:02:23.451Z,22.77
2023-03-19T08:04:52.504Z,27.02
2023-03-19T08:07:22.640Z,27.83
2023-03-19T08:09:51.050Z,30.45
2023-03-19T08:12:19.368Z,32.58
2023-03-19T08:14:47.661Z,34.22
2023-03-19T08:17:16.050Z,34.53
2023-03-19T08:19:44.704Z,27.67
2023-03-19T08:22:43.399Z,27.65
2023-03-19T08:25:12.303Z,24.27
2023-03-19T08:27:42.955Z,26.42
2023-03-19T08:30:12.611Z,27.02
2023-03-19T08:32:41.165Z,25.80
2023-03-19T08:35:10.562Z,25.55
2023-03-19T08:37:47.385Z,25.90
2023-03-19T08:40:17.139Z,23.42
2023-03-19T08:42:45.988Z,25.52
2023-03-19T08:45:15.942Z,25.52
2023-03-19T08:47:45.413Z,28.67
2023-03-19T08:50:13.930Z,24.90
2023-03-19T08:52:42.497Z,25.33
2023-03-19T08:55:11.792Z,24.90
2023-03-19T08:57:41.695Z,26.02
2023-03-19T09:00:11.539Z,26.75
2023-03-19T09:02:40.425Z,26.23
2023-03-19T09:05:09.504Z,26.95
2023-03-19T09:07:37.907Z,27.20
2023-03-19T09:10:07.245Z,26.67
2023-03-19T09:12:35.624Z,28.90
2023-03-19T09:15:06.993Z,28.27
2023-03-19T09:17:35.404Z,28.63
2023-03-19T09:20:06.064Z,28.83
2023-03-19T09:22:34.856Z,28.38
2023-03-19T09:25:03.259Z,25.70
2023-03-19T09:27:31.750Z,26.98
2023-03-19T09:30:00.839Z,26.05
2023-03-19T09:32:31.532Z,26.40
2023-03-19T09:34:59.922Z,24.63
2023-03-19T09:37:28.304Z,17.35
2023-03-19T09:39:56.716Z,15.85
2023-03-19T09:42:46.446Z,13.75
2023-03-19T09:45:20.577Z,12.95
2023-03-19T09:47:53.557Z,11.85
2023-03-19T09:50:24.597Z,10.43
2023-03-19T09:52:58.704Z,11.57
2023-03-19T09:55:38.794Z,9.80
2023-03-19T09:58:15.074Z,10.38
2023-03-19T10:00:45.477Z,9.35
2023-03-19T10:03:36.642Z,9.70
2023-03-19T10:06:12.945Z,10.15
2023-03-19T10:08:53.421Z,8.60
2023-03-19T10:11:33.610Z,8.18
2023-03-19T10:14:11.796Z,7.30
2023-03-19T10:16:43.366Z,8.32
2023-03-19T10:19:16.453Z,8.13
2023-03-19T10:21:48.126Z,7.53
2023-03-19T10:24:23.153Z,7.47
2023-03-19T10:27:00.469Z,6.85
2023-03-19T10:29:29.577Z,7.82
2023-03-19T10:32:03.990Z,7.47
2023-03-19T10:34:35.670Z,7.60
2023-03-19T10:37:06.101Z,6.88
2023-03-19T10:39:36.283Z,7.43
2023-03-19T10:42:28.084Z,6.45
2023-03-19T10:45:05.964Z,7.72
2023-03-19T10:47:40.404Z,6.78
2023-03-19T10:50:17.492Z,6.30
2023-03-19T10:52:47.285Z,7.25
2023-03-19T10:55:18.035Z,5.88
2023-03-19T10:57:51.735Z,5.88
2023-03-19T11:00:24.230Z,5.95
2023-03-19T11:02:55.874Z,5.65
2023-03-19T11:05:29.313Z,4.38
2023-03-19T11:08:01.681Z,5.10
2023-03-19T11:10:32.053Z,5.03
2023-03-19T11:13:04.330Z,5.25
2023-03-19T11:15:37.426Z,4.43
2023-03-19T11:18:17.433Z,4.03
2023-03-19T11:20:51.948Z,4.13
2023-03-19T11:23:21.335Z,4.10
2023-03-19T11:25:52.570Z,4.40
2023-03-19T11:28:25.992Z,4.05
2023-03-19T11:31:00.150Z,4.05
2023-03-19T11:33:45.736Z,4.43
2023-03-19T11:36:23.627Z,3.60
2023-03-19T11:38:59.921Z,3.78
2023-03-19T11:41:38.705Z,3.95
2023-03-19T11:44:15.344Z,3.17
2023-03-19T11:46:56.978Z,2.95
2023-03-19T11:50:18.395Z,3.00
2023-03-19T11:53:07.043Z,2.55
2023-03-19T11:55:44.350Z,2.45
2023-03-19T11:58:31.134Z,1.92
2023-03-19T12:01:07.564Z,2.25
2023-03-19T12:04:06.354Z,2.95
2023-03-19T12:06:48.418Z,1.75
2023-03-19T12:09:27.766Z,1.45
2023-03-19T12:12:04.382Z,1.98
2023-03-19T12:14:49.395Z,2.00
2023-03-19T12:17:26.312Z,2.03
2023-03-19T12:20:29.390Z,2.03
2023-03-19T12:23:08.581Z,1.77
2023-03-19T12:25:57.150Z,1.50
2023-03-19T12:28:27.960Z,1.50
2023-03-19T12:31:18.344Z,1.35
2023-03-19T12:33:51.125Z,1.08
2023-03-19T12:36:23.411Z,0.90
2023-03-19T12:38:55.602Z,0.75
2023-03-19T12:41:28.337Z,1.02
2023-03-19T12:44:02.381Z,1.00
2023-03-19T12:46:34.943Z,0.85
2023-03-19T12:49:09.041Z,0.90
2023-03-19T12:51:42.038Z,1.02
2023-03-19T12:54:14.620Z,0.65
2023-03-19T12:56:54.330Z,0.70
2023-03-19T12:59:30.927Z,1.10
2023-03-19T13:02:07.685Z,0.95
2023-03-19T13:04:41.449Z,0.95
2023-03-19T13:07:14.874Z,1.10
2023-03-19T13:09:49.895Z,1.50
2023-03-19T13:12:20.696Z,1.33
2023-03-19T13:14:56.312Z,1.10
2023-03-19T13:17:30.158Z,1.00
2023-03-19T13:20:05.454Z,0.73
2023-03-19T13:22:36.520Z,0.77
2023-03-19T13:25:06.003Z,0.57
2023-03-19T13:27:37.239Z,0.63
2023-03-19T13:30:19.002Z,0.85
2023-03-19T13:32:49.425Z,1.20
2023-03-19T13:35:34.819Z,1.52
2023-03-19T13:38:08.920Z,1.20
2023-03-19T13:40:45.929Z,1.10
2023-03-19T13:43:52.935Z,1.00
2023-03-19T13:46:48.393Z,1.15
2023-03-19T13:49:28.737Z,1.30
2023-03-19T13:52:05.803Z,1.23
2023-03-19T13:54:38.371Z,2.80
2023-03-19T13:57:22.590Z,2.65
2023-03-19T13:59:52.449Z,3.50
2023-03-19T14:02:48.993Z,3.05
2023-03-19T14:05:22.920Z,3.28
2023-03-19T14:07:56.462Z,3.42
2023-03-19T14:10:27.901Z,4.50
2023-03-19T14:13:07.099Z,3.88
2023-03-19T14:15:42.982Z,3.00
2023-03-19T14:18:18.774Z,4.22
2023-03-19T14:20:59.224Z,3.38
2023-03-19T14:23:40.786Z,3.47
2023-03-19T14:26:19.260Z,3.28
2023-03-19T14:28:56.005Z,3.53
2023-03-19T14:31:32.176Z,4.35
2023-03-19T14:34:05.685Z,3.17
2023-03-19T14:36:38.332Z,2.13
2023-03-19T14:39:21.599Z,2.58
2023-03-19T14:41:53.611Z,2.67
2023-03-19T14:44:50.269Z,3.60
2023-03-19T14:47:27.858Z,3.55
2023-03-19T14:50:27.527Z,3.25
2023-03-19T14:53:06.044Z,3.60
2023-03-19T14:55:36.788Z,3.58
2023-03-19T14:58:06.762Z,2.35
2023-03-19T15:00:49.751Z,3.58
2023-03-19T15:03:29.704Z,3.40
2023-03-19T15:05:59.994Z,2.95
2023-03-19T15:08:31.448Z,3.65
2023-03-19T15:11:14.273Z,3.08
2023-03-19T15:13:55.912Z,3.33
2023-03-19T15:16:37.541Z,2.35
2023-03-19T15:19:11.204Z,2.70
2023-03-19T15:21:40.066Z,2.70
2023-03-19T15:24:15.992Z,2.60
2023-03-19T15:26:45.813Z,3.13
2023-03-19T15:29:14.464Z,2.80
2023-03-19T15:31:52.844Z,2.58
2023-03-19T15:34:31.963Z,3.10
2023-03-19T15:37:06.031Z,3.28
2023-03-19T15:39:37.662Z,2.30
2023-03-19T15:42:06.939Z,2.45
2023-03-19T15:44:39.024Z,2.58
2023-03-19T15:47:13.135Z,1.73
2023-03-19T15:49:46.584Z,2.70
2023-03-19T15:52:19.501Z,2.65
2023-03-19T15:54:48.066Z,2.45
2023-03-19T15:57:18.936Z,2.25
2023-03-19T15:59:47.878Z,2.00
2023-03-19T16:02:26.089Z,2.38
2023-03-19T16:05:20.569Z,2.58
2023-03-19T16:08:06.339Z,3.53
2023-03-19T16:10:40.015Z,3.75
2023-03-19T16:13:41.942Z,4.22
2023-03-19T16:16:21.537Z,4.15
2023-03-19T16:18:52.920Z,4.47
2023-03-19T16:21:25.343Z,4.22
2023-03-19T16:23:57.200Z,4.47
2023-03-19T16:26:27.485Z,4.70
2023-03-19T16:29:06.466Z,4.05
2023-03-19T16:31:43.828Z,3.67
2023-03-19T16:34:43.615Z,4.03
2023-03-19T16:37:34.099Z,3.03
2023-03-19T16:40:26.546Z,3.67
2023-03-19T16:42:56.207Z,4.60
2023-03-19T16:45:28.984Z,4.10
2023-03-19T16:47:58.632Z,3.72
2023-03-19T16:50:31.297Z,2.83
2023-03-19T16:53:02.439Z,3.17
2023-03-19T16:55:36.563Z,2.92
2023-03-19T16:58:08.633Z,3.75
2023-03-19T17:00:37.118Z,4.57
2023-03-19T17:03:05.920Z,3.70
2023-03-19T17:05:35.641Z,4.10
2023-03-19T17:08:05.640Z,4.35
2023-03-19T17:10:34.348Z,5.35
2023-03-19T17:13:03.885Z,3.65
2023-03-19T17:15:36.208Z,4.57
2023-03-19T17:18:14.229Z,3.95
2023-03-19T17:20:51.108Z,3.95
2023-03-19T17:23:24.414Z,3.95
2023-03-19T17:25:53.088Z,3.58
2023-03-19T17:28:21.511Z,4.00
2023-03-19T17:30:55.722Z,3.88
2023-03-19T17:33:25.642Z,4.03
2023-03-19T17:35:55.082Z,4.15
2023-03-19T17:38:30.193Z,3.53
2023-03-19T17:40:58.733Z,4.18
2023-03-19T17:43:27.346Z,4.03
2023-03-19T17:45:57.033Z,5.45
2023-03-19T17:48:27.630Z,3.70
2023-03-19T17:50:58.499Z,4.30
2023-03-19T17:53:28.743Z,3.28
2023-03-19T17:55:57.277Z,4.13
2023-03-19T17:58:26.227Z,3.92
2023-03-19T18:00:54.931Z,3.92
2023-03-19T18:03:24.376Z,3.55
2023-03-19T18:05:53.235Z,3.10
2023-03-19T18:08:23.976Z,3.05
2023-03-19T18:10:53.827Z,2.90
2023-03-19T18:13:22.143Z,3.22
2023-03-19T18:15:50.904Z,3.63
2023-03-19T18:18:22.411Z,4.18
2023-03-19T18:20:53.668Z,3.55
2023-03-19T18:23:24.141Z,6.15
2023-03-19T18:25:53.982Z,3.78
2023-03-19T18:28:22.529Z,3.05
2023-03-19T18:30:51.133Z,3.30
2023-03-19T18:33:26.567Z,5.03
2023-03-19T18:35:55.491Z,5.60
2023-03-19T18:38:26.598Z,5.85
2023-03-19T18:40:56.317Z,6.47
2023-03-19T18:43:25.114Z,6.95
2023-03-19T18:45:55.024Z,7.15
2023-03-19T18:48:26.406Z,7.45
2023-03-19T18:50:55.958Z,9.20
2023-03-19T18:53:25.532Z,7.90
2023-03-19T18:55:55.898Z,11.25
2023-03-19T18:58:28.130Z,9.25
2023-03-19T19:00:56.812Z,10.68
2023-03-19T19:03:29.450Z,11.43
2023-03-19T19:05:57.837Z,10.75
2023-03-19T19:08:26.855Z,12.80
2023-03-19T19:11:02.381Z,14.32
2023-03-19T19:13:55.207Z,16.35
2023-03-19T19:16:30.197Z,21.42
2023-03-19T19:18:59.042Z,22.50
2023-03-19T19:21:27.557Z,28.17
2023-03-19T19:23:56.018Z,42.33
2023-03-19T19:26:28.876Z,40.25
2023-03-19T19:29:00.282Z,32.70
2023-03-19T19:31:31.417Z,23.27
2023-03-19T19:34:00.251Z,22.25
2023-03-19T19:36:30.044Z,21.80
2023-03-19T19:38:58.374Z,26.60
2023-03-19T19:41:28.568Z,41.17
2023-03-19T19:44:03.407Z,37.15
2023-03-19T19:46:33.141Z,35.47
2023-03-19T19:49:01.500Z,34.03
2023-03-19T19:51:31.115Z,27.73
2023-03-19T19:53:59.483Z,25.42
2023-03-19T19:56:30.773Z,29.70
2023-03-19T19:58:59.904Z,27.65
2023-03-19T20:01:28.397Z,31.52
2023-03-19T20:03:58.522Z,42.92
2023-03-19T20:06:27.109Z,40.88
2023-03-19T20:08:55.522Z,45.55
2023-03-19T20:11:25.708Z,45.30
2023-03-19T20:13:56.764Z,42.17
2023-03-19T20:16:27.244Z,48.00
2023-03-19T20:18:55.697Z,43.40
2023-03-19T20:21:24.277Z,42.25
2023-03-19T20:23:55.582Z,44.63
2023-03-19T20:26:25.514Z,45.58
2023-03-19T20:28:56.302Z,42.75
2023-03-19T20:31:29.620Z,44.20
2023-03-19T20:33:58.442Z,43.65
2023-03-19T20:36:27.730Z,45.75
2023-03-19T20:38:56.314Z,45.40
2023-03-19T20:41:27.135Z,44.63
2023-03-19T20:43:57.763Z,43.10
2023-03-19T20:46:26.263Z,42.78
2023-03-19T20:48:54.652Z,41.85
2023-03-19T20:51:26.384Z,42.38
2023-03-19T20:53:57.375Z,47.45
2023-03-19T20:56:25.963Z,49.88
2023-03-19T20:58:54.433Z,49.33
2023-03-19T21:01:25.094Z,46.88
2023-03-19T21:03:53.481Z,48.60
2023-03-19T21:06:23.653Z,40.15
2023-03-19T21:08:54.601Z,39.15
2023-03-19T21:11:24.193Z,39.42
2023-03-19T21:13:54.276Z,39.22
2023-03-19T21:16:26.236Z,39.47
2023-03-19T21:18:55.066Z,42.63
2023-03-19T21:21:30.442Z,43.90
2023-03-19T21:24:02.443Z,46.42
2023-03-19T21:26:31.023Z,46.45
2023-03-19T21:29:06.373Z,45.10
2023-03-19T21:31:36.247Z,49.58
2023-03-19T21:34:07.046Z,48.38
2023-03-19T21:36:35.356Z,48.45
2023-03-19T21:39:04.643Z,51.35
2023-03-19T21:41:36.675Z,55.25
2023-03-19T21:44:14.075Z,55.90
2023-03-19T21:46:47.855Z,56.08
2023-03-19T21:49:17.194Z,58.90
2023-03-19T21:51:46.848Z,61.88
2023-03-19T21:54:18.630Z,58.00
2023-03-19T21:56:47.310Z,60.58
2023-03-19T21:59:27.063Z,60.20
2023-03-19T22:01:57.903Z,61.08
2023-03-19T22:04:27.907Z,57.92
2023-03-19T22:06:56.528Z,62.17
2023-03-19T22:09:24.874Z,58.75
2023-03-19T22:11:53.325Z,61.15
2023-03-19T22:14:26.703Z,58.90
2023-03-19T22:16:57.800Z,57.83
2023-03-19T22:19:26.262Z,56.35
2023-03-19T22:21:55.284Z,54.38
2023-03-19T22:24:23.654Z,53.75
2023-03-19T22:26:57.464Z,55.58
2023-03-19T22:29:29.694Z,55.75
2023-03-19T22:31:59.467Z,57.63
2023-03-19T22:34:29.023Z,56.50
2023-03-19T22:36:57.351Z,57.10
2023-03-19T22:39:25.792Z,59.85
2023-03-19T22:41:54.243Z,57.65
2023-03-19T22:44:27.989Z,58.40
2023-03-19T22:47:00.058Z,58.88
2023-03-19T22:49:29.745Z,59.17
2023-03-19T22:51:58.200Z,58.08
2023-03-19T22:54:26.718Z,59.10
2023-03-19T22:56:55.086Z,62.00
2023-03-19T22:59:23.944Z,62.33
2023-03-19T23:01:52.380Z,60.38
2023-03-19T23:04:24.338Z,58.33
2023-03-19T23:06:53.725Z,57.20
2023-03-19T23:09:25.265Z,57.63
2023-03-19T23:11:54.278Z,56.60
2023-03-19T23:14:30.189Z,59.63
2023-03-19T23:17:02.323Z,60.67
2023-03-19T23:19:34.191Z,60.53
2023-03-19T23:22:04.891Z,59.25
2023-03-19T23:24:34.115Z,60.83
2023-03-19T23:27:03.613Z,60.83
2023-03-19T23:29:35.369Z,63.13
2023-03-19T23:32:05.214Z,60.83
2023-03-19T23:34:42.464Z,58.05
2023-03-19T23:37:14.273Z,58.47
2023-03-19T23:39:42.843Z,60.90
2023-03-19T23:42:24.607Z,63.35
2023-03-19T23:44:54.227Z,61.55
2023-03-19T23:47:22.520Z,60.83
2023-03-19T23:49:52.275Z,60.97
2023-03-19T23:52:20.600Z,59.03
2023-03-19T23:54:49.007Z,60.00
2023-03-19T23:57:18.690Z,59.22
2023-03-19T23:59:50.913Z,59.10
